Time;durP1;ratioP1;P1;durP2;ratioP2;P2;SDS_P1;SDS_P2;PMS_P1;PMS_P2;Temp;Humidity;BMP_temperature;BMP_pressure;BME280_temperature;BME280_humidity;BME280_pressure;Samples;Min_cycle;Max_cycle;Signal;HPM_P1;HPM_P2
2021/09/15 00:01:31;;;;;;;143.10;60.85;;;;;;;12.62;100.00;99383.09;5009232;28;20479;-70
2021/09/15 00:03:57;;;;;;;138.32;60.13;;;;;;;12.65;100.00;99396.91;5006294;28;20038;-70
2021/09/15 00:06:22;;;;;;;139.20;58.65;;;;;;;12.67;100.00;99383.09;5009410;28;20030;-70
2021/09/15 00:08:48;;;;;;;133.88;58.28;;;;;;;12.64;100.00;99381.75;5008291;28;20044;-71
2021/09/15 00:11:17;;;;;;;128.52;55.78;;;;;;;12.70;100.00;99377.16;5004416;28;20031;-70
2021/09/15 00:13:43;;;;;;;121.05;54.53;;;;;;;12.78;100.00;99386.66;4993610;28;20038;-70
2021/09/15 00:16:09;;;;;;;120.00;55.17;;;;;;;12.79;100.00;99394.50;4991272;28;20042;-70
2021/09/15 00:18:35;;;;;;;116.10;52.97;;;;;;;12.72;100.00;99392.06;5002159;28;20403;-71
2021/09/15 00:21:01;;;;;;;99.15;49.33;;;;;;;12.67;100.00;99385.81;5008303;28;20030;-70
2021/09/15 00:23:27;;;;;;;105.30;49.00;;;;;;;12.66;100.00;99386.88;5000036;28;20463;-70
2021/09/15 00:25:53;;;;;;;101.95;49.10;;;;;;;12.59;100.00;99387.94;5004457;28;20046;-71
2021/09/15 00:28:18;;;;;;;105.13;50.00;;;;;;;12.58;100.00;99399.03;4978114;28;20046;-69
2021/09/15 00:30:44;;;;;;;106.25;49.80;;;;;;;12.56;100.00;99399.28;4992127;28;20133;-70
2021/09/15 00:33:10;;;;;;;109.35;49.80;;;;;;;12.64;100.00;99391.75;4996903;28;20045;-70
2021/09/15 00:35:36;;;;;;;107.38;49.88;;;;;;;12.71;100.00;99393.13;4994646;28;20038;-70
2021/09/15 00:38:02;;;;;;;98.47;47.13;;;;;;;12.68;100.00;99385.56;4996434;28;20405;-69
2021/09/15 00:40:27;;;;;;;105.63;48.88;;;;;;;12.70;100.00;99387.97;4996215;28;20053;-70
2021/09/15 00:42:53;;;;;;;98.22;48.20;;;;;;;12.70;100.00;99386.09;4992117;28;20046;-70
2021/09/15 00:45:19;;;;;;;90.82;45.38;;;;;;;12.68;100.00;99385.56;5000453;28;20033;-71
2021/09/15 00:47:45;;;;;;;87.03;44.15;;;;;;;12.67;100.00;99385.81;4997909;28;20109;-71
2021/09/15 00:50:11;;;;;;;87.82;44.63;;;;;;;12.65;100.00;99383.38;4997930;28;20054;-70
2021/09/15 00:52:37;;;;;;;87.75;45.85;;;;;;;12.59;100.00;99384.44;4999669;28;20499;-71
2021/09/15 00:55:03;;;;;;;92.45;46.22;;;;;;;12.58;100.00;99377.41;4990135;28;20026;-71
2021/09/15 00:57:29;;;;;;;89.50;44.58;;;;;;;12.53;100.00;99372.78;5004496;28;20088;-70
2021/09/15 00:59:54;;;;;;;89.78;46.22;;;;;;;12.53;100.00;99372.78;4992273;28;20117;-71
2021/09/15 01:02:20;;;;;;;90.13;44.97;;;;;;;12.50;100.00;99373.31;4992313;28;20091;-71
2021/09/15 01:04:45;;;;;;;91.70;45.92;;;;;;;12.49;100.00;99368.19;4998411;28;20455;-71
2021/09/15 01:07:12;;;;;;;93.60;46.08;;;;;;;12.43;100.00;99370.06;5006958;28;20602;-70
2021/09/15 01:09:38;;;;;;;93.97;46.13;;;;;;;12.40;100.00;99371.41;4989695;28;20488;-71
2021/09/15 01:12:09;;;;;;;85.75;44.10;;;;;;;12.34;100.00;99383.25;4992167;28;20041;-70
2021/09/15 01:14:41;;;;;;;90.15;44.58;;;;;;;12.36;100.00;99377.59;4991956;28;20035;-71
2021/09/15 01:17:07;;;;;;;85.25;43.47;;;;;;;12.38;100.00;99388.94;5006101;28;20034;-71
2021/09/15 01:19:33;;;;;;;80.20;42.92;;;;;;;12.28;100.00;99376.19;4999783;28;20515;-70
2021/09/15 01:21:59;;;;;;;76.28;41.08;;;;;;;12.31;100.00;99367.56;4995683;28;20058;-71
2021/09/15 01:24:26;;;;;;;82.50;39.78;;;;;;;12.29;100.00;99377.81;4993348;28;20038;-71
2021/09/15 01:26:53;;;;;;;79.13;39.75;;;;;;;12.17;100.00;99366.41;4994859;28;20041;-70
2021/09/15 01:29:24;;;;;;;73.88;38.88;;;;;;;12.28;100.00;99368.91;5004203;28;20073;-71
2021/09/15 01:32:10;;;;;;;68.70;36.40;;;;;;;12.27;100.00;99366.47;4996050;28;20109;-70
2021/09/15 01:34:40;;;;;;;71.05;36.40;;;;;;;12.24;100.00;99373.22;5005190;28;20108;-71
2021/09/15 01:37:08;;;;;;;71.63;37.28;;;;;;;12.22;100.00;99372.66;4993301;28;20092;-71
2021/09/15 01:39:34;;;;;;;64.60;36.60;;;;;;;12.25;100.00;99374.00;4959940;28;1133059;-69
2021/09/15 01:42:01;;;;;;;67.05;36.38;;;;;;;12.26;100.00;99372.94;5007437;28;20581;-70
2021/09/15 01:44:41;;;;;;;62.75;33.60;;;;;;;12.34;100.00;99382.44;4996268;28;20153;-70
2021/09/15 01:47:08;;;;;;;53.90;32.22;;;;;;;12.28;100.00;99382.41;5007195;28;20052;-70
2021/09/15 01:49:35;;;;;;;60.45;33.22;;;;;;;12.27;100.00;99383.50;4995280;28;20030;-70
2021/09/15 01:52:01;;;;;;;57.25;31.27;;;;;;;12.28;100.00;99384.28;5001891;28;20038;-70
2021/09/15 01:54:28;;;;;;;56.22;30.73;;;;;;;12.27;100.00;99383.50;5006600;28;20072;-70
2021/09/15 01:56:54;;;;;;;55.55;30.17;;;;;;;12.30;100.00;99390.25;5010513;28;20057;-70
2021/09/15 01:59:20;;;;;;;55.53;29.52;;;;;;;12.35;100.00;99384.88;4999479;28;20026;-71
2021/09/15 02:01:46;;;;;;;51.83;29.83;;;;;;;12.31;100.00;99383.75;4995217;28;20034;-71
2021/09/15 02:04:12;;;;;;;52.58;29.33;;;;;;;12.29;100.00;99377.81;4981079;28;20029;-71
2021/09/15 02:06:38;;;;;;;48.58;29.13;;;;;;;12.29;100.00;99378.66;4996960;28;20034;-71
2021/09/15 02:09:04;;;;;;;51.70;30.13;;;;;;;12.35;100.00;99384.06;4996928;28;20049;-71
2021/09/15 02:11:30;;;;;;;54.65;29.15;;;;;;;12.35;100.00;99387.56;4998830;28;20054;-71
2021/09/15 02:13:56;;;;;;;58.45;30.73;;;;;;;12.34;100.00;99387.84;4977055;28;20393;-70
2021/09/15 02:16:22;;;;;;;52.72;27.65;;;;;;;12.32;100.00;99380.00;5007050;28;20061;-71
2021/09/15 02:18:47;;;;;;;54.05;29.35;;;;;;;12.35;100.00;99386.75;5005566;28;20061;-70
2021/09/15 02:21:13;;;;;;;49.67;29.25;;;;;;;12.34;100.00;99388.63;4998601;28;20591;-70
2021/09/15 02:23:39;;;;;;;50.78;29.17;;;;;;;12.35;100.00;99392.16;4996255;28;20136;-70
2021/09/15 02:26:05;;;;;;;48.88;28.58;;;;;;;12.35;100.00;99387.56;5005567;28;20030;-70
2021/09/15 02:28:31;;;;;;;58.78;30.40;;;;;;;12.40;100.00;99390.31;5002798;28;20388;-70
2021/09/15 02:30:57;;;;;;;56.90;29.83;;;;;;;12.37;100.00;99393.53;5002036;28;20487;-70
2021/09/15 02:33:22;;;;;;;57.08;33.40;;;;;;;12.41;100.00;99391.13;5001129;28;20026;-70
2021/09/15 02:35:48;;;;;;;53.78;31.23;;;;;;;12.36;100.00;99389.19;5002091;28;20503;-70
2021/09/15 02:38:14;;;;;;;48.83;28.85;;;;;;;12.43;100.00;99384.38;4994858;28;20042;-70
2021/09/15 02:40:41;;;;;;;52.13;28.90;;;;;;;12.38;100.00;99387.06;4994022;28;20039;-70
2021/09/15 02:43:06;;;;;;;48.97;29.30;;;;;;;12.34;100.00;99394.03;5006474;28;20060;-71
2021/09/15 02:45:32;;;;;;;45.80;28.13;;;;;;;12.31;100.00;99391.88;5006993;28;20034;-71
2021/09/15 02:47:58;;;;;;;51.25;28.80;;;;;;;12.28;100.00;99390.50;5004154;28;20054;-70
2021/09/15 02:50:23;;;;;;;55.05;29.58;;;;;;;12.31;100.00;99394.56;5008363;28;20073;-70
2021/09/15 02:52:49;;;;;;;50.28;28.15;;;;;;;12.31;100.00;99391.88;5012736;28;20314;-70
2021/09/15 02:55:14;;;;;;;49.55;27.73;;;;;;;12.41;100.00;99391.94;4998737;28;20547;-70
2021/09/15 02:57:40;;;;;;;47.55;27.02;;;;;;;12.29;100.00;99392.13;4993284;28;20039;-70
2021/09/15 03:00:06;;;;;;;47.13;27.10;;;;;;;12.28;100.00;99390.50;5002832;28;20040;-70
2021/09/15 03:02:32;;;;;;;47.92;27.38;;;;;;;12.25;100.00;99395.63;5004373;28;20068;-71
2021/09/15 03:04:57;;;;;;;50.75;26.63;;;;;;;12.25;100.00;99390.22;5009123;28;20500;-71
2021/09/15 03:07:23;;;;;;;45.30;26.17;;;;;;;12.25;100.00;99393.75;4997488;28;20087;-70
2021/09/15 03:09:48;;;;;;;45.13;27.00;;;;;;;12.26;100.00;99383.75;5010842;28;20448;-70
2021/09/15 03:12:14;;;;;;;47.17;26.80;;;;;;;12.23;100.00;99379.69;4997942;28;20483;-70
2021/09/15 03:14:40;;;;;;;45.30;26.25;;;;;;;12.32;100.00;99377.28;5010651;28;20463;-71
2021/09/15 03:17:06;;;;;;;41.05;26.17;;;;;;;12.26;100.00;99384.56;4993628;28;20141;-70
2021/09/15 03:19:31;;;;;;;49.53;27.13;;;;;;;12.28;100.00;99382.41;4996796;28;20069;-70
2021/09/15 03:21:57;;;;;;;49.47;28.33;;;;;;;12.28;100.00;99379.72;5004662;28;20562;-70
2021/09/15 03:24:22;;;;;;;50.53;28.60;;;;;;;12.22;100.00;99377.25;5006779;28;20073;-70
2021/09/15 03:26:49;;;;;;;54.08;29.15;;;;;;;12.18;100.00;99368.88;5002037;28;20201;-71
2021/09/15 03:29:14;;;;;;;60.08;31.65;;;;;;;12.17;100.00;99369.13;4997349;28;20053;-70
2021/09/15 03:31:40;;;;;;;60.92;32.38;;;;;;;12.19;100.00;99372.38;4999189;28;20543;-70
2021/09/15 03:34:05;;;;;;;64.07;33.15;;;;;;;12.11;100.00;99371.78;5004614;28;20629;-71
2021/09/15 03:36:31;;;;;;;61.35;32.47;;;;;;;12.12;100.00;99383.41;4987470;28;20038;-70
2021/09/15 03:38:56;;;;;;;61.38;33.17;;;;;;;12.05;100.00;99372.03;5002573;28;20060;-70
2021/09/15 03:41:22;;;;;;;68.32;34.17;;;;;;;12.04;100.00;99375.81;4999126;28;20038;-70
2021/09/15 03:43:48;;;;;;;62.63;33.00;;;;;;;12.06;100.00;99373.66;5007600;28;20033;-70
2021/09/15 03:46:13;;;;;;;73.43;33.85;;;;;;;12.11;100.00;99376.38;5010821;28;20411;-70
2021/09/15 03:48:39;;;;;;;60.03;31.83;;;;;;;12.04;100.00;99368.50;5008488;28;20483;-71
2021/09/15 03:51:04;;;;;;;54.92;30.98;;;;;;;12.02;100.00;99376.06;5005855;28;20088;-71
2021/09/15 03:53:33;;;;;;;57.72;31.67;;;;;;;11.99;100.00;99371.97;5008716;28;20495;-70
2021/09/15 03:55:59;;;;;;;55.20;29.90;;;;;;;11.96;100.00;99367.09;5009332;28;20076;-71
2021/09/15 03:58:24;;;;;;;58.55;31.30;;;;;;;11.97;100.00;99368.72;5006230;28;20037;-71
2021/09/15 04:00:50;;;;;;;63.20;33.72;;;;;;;11.95;100.00;99362.78;5002633;28;20038;-71
2021/09/15 04:03:15;;;;;;;65.55;32.95;;;;;;;11.95;100.00;99359.25;5009340;28;20049;-71
2021/09/15 04:05:41;;;;;;;61.33;32.22;;;;;;;11.97;100.00;99363.34;5006090;28;20532;-71
2021/09/15 04:08:08;;;;;;;63.28;32.78;;;;;;;11.95;100.00;99362.78;5009760;28;20053;-71
2021/09/15 04:10:33;;;;;;;69.53;32.83;;;;;;;11.95;100.00;99360.09;5010142;28;20053;-71
2021/09/15 04:12:59;;;;;;;61.20;31.38;;;;;;;11.94;100.00;99361.16;4996261;28;20105;-71
2021/09/15 04:15:25;;;;;;;66.10;32.10;;;;;;;11.92;100.00;99365.16;5007002;28;20175;-71
2021/09/15 04:17:51;;;;;;;64.13;32.58;;;;;;;11.91;100.00;99356.28;5004268;28;20026;-71
2021/09/15 04:20:16;;;;;;;60.72;31.75;;;;;;;11.90;100.00;99359.22;5002097;28;20026;-70
2021/09/15 04:22:43;;;;;;;58.17;29.67;;;;;;;11.85;100.00;99360.81;5007075;28;20084;-71
2021/09/15 04:33:26;;;;;;;68.65;31.90;;;;;;;11.90;100.00;99360.06;4915423;29;20044;-71
2021/09/15 04:35:52;;;;;;;49.90;27.95;;;;;;;11.92;100.00;99370.56;4928246;29;20069;-71
2021/09/15 04:38:18;;;;;;;61.17;30.67;;;;;;;11.92;100.00;99365.16;4928429;29;20038;-71
2021/09/15 04:40:43;;;;;;;58.42;29.27;;;;;;;11.96;100.00;99364.41;4928425;29;20056;-72
2021/09/15 04:43:09;;;;;;;58.42;29.55;;;;;;;11.96;100.00;99366.28;4928840;29;20047;-72
2021/09/15 04:45:34;;;;;;;54.35;27.92;;;;;;;11.98;100.00;99366.81;4929176;29;20035;-71
2021/09/15 04:48:00;;;;;;;53.35;28.20;;;;;;;11.96;100.00;99377.06;4914199;29;20048;-71
2021/09/15 04:50:25;;;;;;;51.08;27.85;;;;;;;11.96;100.00;99377.06;4924297;29;20044;-71
2021/09/15 04:52:51;;;;;;;49.92;26.48;;;;;;;11.94;100.00;99380.03;4928600;29;20042;-72
2021/09/15 04:55:16;;;;;;;51.20;26.95;;;;;;;11.96;100.00;99364.41;4920120;29;20052;-71
2021/09/15 04:57:42;;;;;;;53.13;27.38;;;;;;;12.03;100.00;99374.97;4915102;29;20394;-70
2021/09/15 05:00:08;;;;;;;49.58;25.70;;;;;;;12.08;100.00;99374.22;4922192;29;20095;-71
2021/09/15 05:02:34;;;;;;;42.72;23.73;;;;;;;12.08;100.00;99376.91;4928425;29;20659;-72
2021/09/15 05:05:00;;;;;;;38.80;23.33;;;;;;;12.08;100.00;99376.91;4925459;29;20078;-71
2021/09/15 05:07:25;;;;;;;36.67;21.90;;;;;;;12.14;100.00;99382.06;4959032;28;20740;-71
2021/09/15 05:09:51;;;;;;;45.83;23.13;;;;;;;12.04;100.00;99390.09;5004374;28;20034;-71
2021/09/15 05:12:16;;;;;;;38.40;21.65;;;;;;;12.08;100.00;99391.22;5009132;28;20096;-72
2021/09/15 05:14:42;;;;;;;36.83;20.20;;;;;;;12.08;100.00;99393.91;5003378;28;20138;-72
2021/09/15 05:17:08;;;;;;;37.50;20.38;;;;;;;12.07;100.00;99391.47;5010075;28;20026;-72
2021/09/15 05:19:33;;;;;;;34.80;20.95;;;;;;;12.10;100.00;99388.25;4999203;28;20084;-73
2021/09/15 05:21:59;;;;;;;34.25;19.67;;;;;;;12.05;100.00;99397.13;5001203;28;20526;-72
2021/09/15 05:24:24;;;;;;;29.50;18.52;;;;;;;12.05;100.00;99399.03;5004291;28;20050;-71
2021/09/15 05:26:50;;;;;;;29.75;18.70;;;;;;;12.02;100.00;99396.84;4997659;28;20049;-71
2021/09/15 05:29:15;;;;;;;27.35;17.83;;;;;;;12.04;100.00;99400.91;4999900;28;20029;-72
2021/09/15 05:31:41;;;;;;;28.92;18.45;;;;;;;12.03;100.00;99395.78;5001403;28;20065;-71
2021/09/15 05:34:07;;;;;;;36.35;18.63;;;;;;;11.98;100.00;99399.22;5007239;28;20103;-71
2021/09/15 05:36:32;;;;;;;29.63;18.77;;;;;;;11.94;100.00;99400.81;4994414;28;20514;-71
2021/09/15 05:38:57;;;;;;;33.58;19.25;;;;;;;11.95;100.00;99399.72;4994074;28;20038;-71
2021/09/15 05:41:23;;;;;;;37.90;18.20;;;;;;;11.92;100.00;99408.34;4996833;28;20053;-71
2021/09/15 05:43:48;;;;;;;32.38;18.40;;;;;;;11.95;100.00;99410.53;4998628;28;20041;-72
2021/09/15 05:46:14;;;;;;;38.20;19.80;;;;;;;11.91;100.00;99401.31;5002956;28;20042;-71
2021/09/15 05:48:40;;;;;;;32.22;19.25;;;;;;;11.90;100.00;99411.31;4999989;28;20502;-71
2021/09/15 05:51:05;;;;;;;35.42;20.55;;;;;;;11.89;100.00;99404.31;4997586;28;20062;-71
2021/09/15 05:53:31;;;;;;;38.25;19.33;;;;;;;11.89;100.00;99408.88;5002180;28;20035;-69
2021/09/15 05:55:57;;;;;;;34.83;19.80;;;;;;;11.90;100.00;99414.03;5002690;28;20177;-71
2021/09/15 05:58:23;;;;;;;38.75;18.50;;;;;;;11.93;100.00;99409.97;4999799;28;20034;-71
2021/09/15 06:00:48;;;;;;;29.38;18.52;;;;;;;11.96;100.00;99414.84;5000367;28;20428;-71
2021/09/15 06:03:16;;;;;;;30.58;17.65;;;;;;;11.96;100.00;99412.97;4994325;28;20030;-72
2021/09/15 06:05:41;;;;;;;28.83;17.45;;;;;;;11.97;100.00;99411.91;5005818;28;20083;-72
2021/09/15 06:08:07;;;;;;;27.40;16.88;;;;;;;12.02;100.00;99407.66;5006488;28;20228;-72
2021/09/15 06:10:32;;;;;;;26.40;16.00;;;;;;;12.06;100.00;99422.25;5002847;28;20432;-71
2021/09/15 06:12:58;;;;;;;25.42;15.57;;;;;;;12.15;100.00;99418.78;5003212;28;20037;-72
2021/09/15 06:15:24;;;;;;;22.90;15.07;;;;;;;12.17;100.00;99417.72;5002565;28;20042;-72
2021/09/15 06:17:50;;;;;;;27.08;16.35;;;;;;;12.18;100.00;99416.63;5006860;28;20046;-71
2021/09/15 06:20:15;;;;;;;20.15;13.02;;;;;;;12.25;100.00;99426.16;5008581;28;20697;-72
2021/09/15 06:22:41;;;;;;;25.30;15.98;;;;;;;12.29;100.00;99427.25;5004781;28;20395;-71
2021/09/15 06:25:08;;;;;;;20.70;13.60;;;;;;;12.34;100.00;99436.44;5006367;28;20038;-72
2021/09/15 06:27:35;;;;;;;27.73;15.98;;;;;;;12.43;100.00;99441.09;5002645;28;20033;-72
2021/09/15 06:30:01;;;;;;;26.60;14.25;;;;;;;12.49;100.00;99439.22;4995520;28;20117;-72
2021/09/15 06:32:27;;;;;;;20.98;13.15;;;;;;;12.49;100.00;99441.13;4995809;28;20468;-72
2021/09/15 06:34:56;;;;;;;20.52;13.75;;;;;;;12.41;100.00;99440.56;4999842;28;20034;-71
2021/09/15 06:37:22;;;;;;;20.73;14.52;;;;;;;12.43;100.00;99441.09;4997080;28;20030;-72
2021/09/15 06:39:48;;;;;;;25.83;15.80;;;;;;;12.44;100.00;99455.41;5004970;28;20434;-73
2021/09/15 06:42:15;;;;;;;24.58;15.18;;;;;;;12.47;100.00;99457.59;4986234;28;20484;-72
2021/09/15 06:44:40;;;;;;;24.30;13.90;;;;;;;12.57;100.00;99451.44;5002307;28;20033;-72
2021/09/15 06:47:07;;;;;;;18.55;12.90;;;;;;;12.56;100.00;99450.59;5007375;28;20435;-70
2021/09/15 06:49:33;;;;;;;23.45;13.48;;;;;;;12.56;100.00;99445.19;5001364;28;20030;-71
2021/09/15 06:51:58;;;;;;;20.83;11.73;;;;;;;12.60;100.00;99453.59;5000108;28;20033;-72
2021/09/15 06:54:24;;;;;;;21.50;12.95;;;;;;;12.58;100.00;99443.06;5003067;28;20026;-72
2021/09/15 06:56:50;;;;;;;18.90;11.57;;;;;;;12.62;100.00;99450.63;5001193;28;20531;-73
2021/09/15 06:59:15;;;;;;;17.02;11.20;;;;;;;12.67;100.00;99453.34;5007542;28;20642;-73
2021/09/15 07:01:41;;;;;;;18.25;11.88;;;;;;;12.70;100.00;99456.34;4999682;28;20070;-72
2021/09/15 07:04:06;;;;;;;14.73;10.50;;;;;;;12.85;100.00;99457.50;5002260;28;20038;-73
2021/09/15 07:06:32;;;;;;;20.20;11.45;;;;;;;12.82;100.00;99456.13;5003349;28;20122;-74
2021/09/15 07:08:58;;;;;;;17.40;10.40;;;;;;;12.80;100.00;99455.56;5001087;28;20057;-74
2021/09/15 07:11:23;;;;;;;14.93;11.13;;;;;;;12.82;100.00;99466.13;4996503;28;20135;-74
2021/09/15 07:13:49;;;;;;;16.38;11.05;;;;;;;12.84;100.00;99469.38;5005591;28;20027;-73
2021/09/15 07:16:14;;;;;;;14.50;10.15;;;;;;;12.89;100.00;99469.41;5006717;28;20154;-73
2021/09/15 07:18:40;;;;;;;13.73;9.32;;;;;;;13.04;100.00;99468.63;5006907;28;20479;-74
2021/09/15 07:21:06;;;;;;;12.35;8.93;;;;;;;13.03;100.00;99480.50;5000103;28;20026;-74
2021/09/15 07:23:32;;;;;;;13.90;8.95;;;;;;;13.05;100.00;99485.66;5006165;28;20034;-73
2021/09/15 07:25:58;;;;;;;12.85;8.65;;;;;;;13.07;100.00;99484.31;4998834;28;20221;-74
2021/09/15 07:28:23;;;;;;;16.23;9.18;;;;;;;13.11;100.00;99488.13;5007292;28;20112;-74
2021/09/15 07:30:49;;;;;;;12.20;8.48;;;;;;;13.09;100.00;99487.56;4992271;28;20484;-73
2021/09/15 07:33:15;;;;;;;10.60;8.23;;;;;;;13.14;100.00;99493.00;4997816;28;20034;-72
2021/09/15 07:35:42;;;;;;;11.77;7.75;;;;;;;13.16;100.00;99496.25;5005736;28;20030;-72
2021/09/15 07:38:08;;;;;;;12.48;8.25;;;;;;;13.16;100.00;99498.94;5005548;28;20448;-72
2021/09/15 07:40:34;;;;;;;11.43;7.97;;;;;;;13.10;100.00;99494.59;5005023;28;20046;-72
2021/09/15 07:43:00;;;;;;;10.52;8.10;;;;;;;13.11;100.00;99498.94;5008072;28;20073;-75
2021/09/15 07:45:29;;;;;;;11.52;7.82;;;;;;;13.08;100.00;99501.38;5009838;28;20022;-73
2021/09/15 07:47:55;;;;;;;12.80;8.10;;;;;;;13.08;100.00;99499.47;5011168;28;20041;-74
2021/09/15 07:50:21;;;;;;;10.77;7.47;;;;;;;13.10;100.00;99497.31;5000762;28;20034;-74
2021/09/15 07:52:46;;;;;;;11.50;8.10;;;;;;;13.28;100.00;99501.44;5009187;28;20049;-74
2021/09/15 07:55:12;;;;;;;9.60;7.10;;;;;;;13.30;100.00;99501.97;5008982;28;20026;-73
2021/09/15 07:57:42;;;;;;;11.43;7.18;;;;;;;13.37;100.00;99499.03;5009378;28;20045;-73
2021/09/15 08:00:09;;;;;;;7.82;6.47;;;;;;;13.42;100.00;99504.47;5010652;28;20030;-73
2021/09/15 08:02:34;;;;;;;8.98;6.32;;;;;;;13.52;100.00;99503.66;5001526;28;20443;-73
2021/09/15 08:05:00;;;;;;;7.63;5.10;;;;;;;13.47;99.03;99503.66;5007094;28;20160;-74
2021/09/15 08:07:25;;;;;;;5.80;3.97;;;;;;;13.69;96.91;99505.31;5006800;28;20606;-74
2021/09/15 08:09:51;;;;;;;8.13;4.45;;;;;;;13.86;96.20;99499.66;5009704;28;20030;-73
2021/09/15 08:12:17;;;;;;;4.28;3.60;;;;;;;13.85;95.20;99503.44;4998543;28;20515;-73
2021/09/15 08:14:42;;;;;;;4.55;3.58;;;;;;;13.83;95.95;99509.13;4999895;28;20029;-73
2021/09/15 08:17:08;;;;;;;3.53;3.15;;;;;;;13.91;96.12;99511.28;5007722;28;20034;-73
2021/09/15 08:19:33;;;;;;;5.57;2.90;;;;;;;14.04;94.93;99509.94;4997421;28;20022;-74
2021/09/15 08:21:59;;;;;;;6.80;3.75;;;;;;;14.17;95.20;99522.13;4993100;28;20384;-73
2021/09/15 08:24:25;;;;;;;6.38;3.50;;;;;;;14.14;94.47;99521.84;5005716;28;20107;-73
2021/09/15 08:26:50;;;;;;;4.43;3.67;;;;;;;13.96;94.79;99518.59;5004652;28;20460;-73
2021/09/15 08:29:16;;;;;;;4.63;3.72;;;;;;;14.08;94.37;99512.91;5000659;28;20044;-73
2021/09/15 08:31:42;;;;;;;5.07;3.10;;;;;;;14.05;94.56;99516.97;4995988;28;20041;-74
2021/09/15 08:34:07;;;;;;;5.43;3.72;;;;;;;14.24;93.67;99513.72;4992090;28;20415;-73
2021/09/15 08:36:33;;;;;;;4.43;3.15;;;;;;;14.47;92.04;99511.50;4999958;28;20113;-73
2021/09/15 08:39:00;;;;;;;8.65;2.80;;;;;;;14.63;91.60;99506.88;4996086;28;20045;-73
2021/09/15 08:41:26;;;;;;;3.58;2.72;;;;;;;14.72;90.83;99499.84;5006071;28;20041;-74
2021/09/15 08:43:52;;;;;;;6.15;2.83;;;;;;;14.69;91.64;99502.25;4998099;28;20144;-73
2021/09/15 08:46:20;;;;;;;2.28;2.05;;;;;;;14.64;90.07;99508.50;5008611;28;20660;-73
2021/09/15 08:48:48;;;;;;;2.53;1.92;;;;;;;14.60;90.28;99507.44;5004685;28;20053;-73
2021/09/15 08:51:16;;;;;;;5.10;1.90;;;;;;;14.52;90.34;99508.78;5009412;28;20038;-73
2021/09/15 08:53:43;;;;;;;4.30;1.70;;;;;;;14.68;89.48;99514.16;5005758;28;20698;-74
2021/09/15 08:56:10;;;;;;;4.97;2.88;;;;;;;14.66;90.17;99524.47;4993699;28;20037;-74
2021/09/15 08:58:36;;;;;;;1.95;1.48;;;;;;;14.86;88.46;99526.34;5001661;28;20034;-73
2021/09/15 09:01:23;;;;;;;3.08;1.60;;;;;;;14.91;87.95;99523.63;4994957;28;20508;-74
2021/09/15 09:03:52;;;;;;;1.73;1.63;;;;;;;15.13;86.17;99520.56;5002128;28;20041;-73
2021/09/15 09:06:22;;;;;;;1.98;1.88;;;;;;;15.00;86.91;99521.13;5009131;28;20121;-75
2021/09/15 09:08:53;;;;;;;3.47;1.70;;;;;;;15.13;85.99;99527.88;5010009;28;20389;-75
2021/09/15 09:11:21;;;;;;;1.70;1.60;;;;;;;14.82;88.11;99517.94;5006337;28;20042;-75
2021/09/15 09:13:57;;;;;;;2.35;2.15;;;;;;;14.82;86.83;99519.88;5006252;28;20048;-75
2021/09/15 09:16:37;;;;;;;3.47;1.98;;;;;;;14.56;86.64;99520.72;5003948;28;20059;-75
2021/09/15 09:19:06;;;;;;;2.30;2.08;;;;;;;14.47;88.00;99520.47;4999418;28;20034;-75
2021/09/15 09:21:34;;;;;;;4.20;1.90;;;;;;;14.52;90.28;99521.53;5003814;28;20034;-75
2021/09/15 09:24:01;;;;;;;1.70;1.60;;;;;;;14.51;86.96;99520.72;5004761;28;20101;-74
2021/09/15 09:26:52;;;;;;;2.85;1.92;;;;;;;14.44;87.58;99526.44;5006522;28;20471;-74
2021/09/15 09:29:23;;;;;;;3.92;2.15;;;;;;;14.43;88.48;99522.09;5003314;28;20063;-74
2021/09/15 09:32:09;;;;;;;2.45;2.25;;;;;;;14.51;88.38;99514.50;5004629;28;20133;-74
2021/09/15 09:34:44;;;;;;;2.10;1.90;;;;;;;14.72;90.01;99523.41;5001497;28;20086;-74
2021/09/15 09:37:17;;;;;;;1.63;1.50;;;;;;;14.86;87.92;99524.44;5004040;28;20030;-73
2021/09/15 09:39:48;;;;;;;1.97;1.53;;;;;;;14.92;85.77;99527.97;4991717;28;20093;-73
2021/09/15 09:42:23;;;;;;;1.95;1.42;;;;;;;15.24;85.41;99525.94;5011567;28;20485;-73
2021/09/15 09:44:50;;;;;;;1.10;1.00;;;;;;;15.42;82.98;99519.88;5008460;28;20490;-73
2021/09/15 09:47:21;;;;;;;7.63;1.30;;;;;;;15.78;82.93;99522.34;5008617;28;20514;-74
2021/09/15 09:50:16;;;;;;;3.53;1.75;;;;;;;15.83;81.84;99520.69;4996696;28;20077;-73
2021/09/15 09:52:55;;;;;;;2.42;2.03;;;;;;;15.76;80.47;99524.53;5004025;28;20042;-73
2021/09/15 09:55:22;;;;;;;13.98;1.92;;;;;;;15.69;81.15;99521.31;5008366;28;20130;-73
2021/09/15 09:57:53;;;;;;;2.67;0.90;;;;;;;15.81;80.55;99520.97;5011498;28;20036;-73
2021/09/15 10:00:20;;;;;;;0.75;0.60;;;;;;;15.78;81.06;99519.63;5009436;28;20038;-74
2021/09/15 10:02:47;;;;;;;1.42;0.57;;;;;;;15.95;80.66;99513.84;5005926;28;20030;-73
2021/09/15 10:05:17;;;;;;;2.28;0.40;;;;;;;15.88;78.19;99517.97;5012195;28;20026;-74
2021/09/15 10:07:44;;;;;;;1.33;0.70;;;;;;;15.70;79.26;99524.84;5010482;28;20168;-74
2021/09/15 10:10:12;;;;;;;0.75;0.45;;;;;;;15.57;80.36;99518.94;5011997;28;20100;-74
2021/09/15 10:12:38;;;;;;;1.52;0.60;;;;;;;15.36;79.54;99529.94;5008058;28;20244;-74
2021/09/15 10:15:07;;;;;;;1.20;0.47;;;;;;;15.68;80.75;99527.03;5001237;28;20068;-75
2021/09/15 10:17:35;;;;;;;3.53;0.32;;;;;;;15.72;80.17;99523.47;5002037;28;20053;-74
2021/09/15 10:20:01;;;;;;;1.15;0.50;;;;;;;15.89;79.05;99520.38;4999738;28;20036;-75
2021/09/15 10:22:32;;;;;;;1.60;0.60;;;;;;;15.88;78.18;99532.34;5006720;28;20387;-75
2021/09/15 10:25:00;;;;;;;4.00;0.60;;;;;;;16.15;79.76;99516.66;4998952;28;20125;-75
2021/09/15 10:27:28;;;;;;;1.17;0.57;;;;;;;16.15;78.77;99522.91;5007742;28;20034;-74
2021/09/15 10:30:01;;;;;;;0.47;0.32;;;;;;;16.12;77.64;99511.78;5006307;28;20467;-75
2021/09/15 10:32:34;;;;;;;0.30;0.30;;;;;;;16.00;75.96;99512.97;4997245;28;20031;-74
2021/09/15 10:35:02;;;;;;;0.40;0.35;;;;;;;16.00;78.39;99512.19;5004825;28;20471;-74
2021/09/15 10:37:46;;;;;;;0.45;0.32;;;;;;;16.19;75.96;99513.09;5008301;28;20034;-74
2021/09/15 10:40:13;;;;;;;0.38;0.30;;;;;;;16.30;73.08;99513.78;5004154;28;20555;-74
2021/09/15 10:42:46;;;;;;;0.20;0.20;;;;;;;16.42;72.67;99513.41;5006559;28;20046;-74
2021/09/15 10:45:29;;;;;;;0.93;0.50;;;;;;;16.71;71.72;99511.75;5008064;28;20423;-74
2021/09/15 10:47:58;;;;;;;0.40;0.40;;;;;;;16.54;74.04;99513.00;4999886;28;20517;-74
2021/09/15 10:50:27;;;;;;;1.10;0.38;;;;;;;16.30;74.92;99513.00;5011892;28;20046;-74
2021/09/15 10:53:13;;;;;;;5.15;0.60;;;;;;;16.25;75.09;99516.56;5011959;28;20034;-74
2021/09/15 10:55:44;;;;;;;0.75;0.57;;;;;;;16.34;76.69;99511.31;4995057;28;20046;-74
2021/09/15 10:58:29;;;;;;;0.40;0.40;;;;;;;16.55;73.54;99506.47;4995001;28;20034;-74
2021/09/15 11:01:03;;;;;;;0.40;0.32;;;;;;;16.63;71.00;99505.84;5000022;28;20037;-74
2021/09/15 11:03:33;;;;;;;1.02;0.50;;;;;;;16.74;73.27;99497.56;5008830;28;20041;-74
2021/09/15 11:06:07;;;;;;;1.00;0.50;;;;;;;17.04;73.25;99488.28;4999757;28;20457;-74
2021/09/15 11:08:42;;;;;;;0.63;0.43;;;;;;;16.77;71.63;99497.81;5009917;28;20033;-74
2021/09/15 11:11:34;;;;;;;1.45;0.52;;;;;;;16.65;72.54;99502.84;5011321;28;20133;-74
2021/09/15 11:14:00;;;;;;;4.05;0.70;;;;;;;16.48;73.30;99501.41;4999449;28;20107;-74
2021/09/15 11:16:30;;;;;;;0.55;0.55;;;;;;;16.30;74.98;99504.84;5009720;28;20044;-74
2021/09/15 11:19:16;;;;;;;2.03;0.57;;;;;;;16.34;73.05;99505.91;4998110;28;20038;-74
2021/09/15 11:21:55;;;;;;;1.50;0.35;;;;;;;16.41;71.81;99505.53;5002562;28;20030;-74
2021/09/15 11:24:23;;;;;;;0.50;0.50;;;;;;;16.52;72.63;99504.34;5006710;28;20030;-73
2021/09/15 11:26:54;;;;;;;1.35;0.40;;;;;;;16.83;73.55;99509.47;4993973;28;20037;-73